createdAt,value
2019-01-08T00:04:42.489Z,7.69
2019-01-08T00:09:44.038Z,7.58
2019-01-08T00:14:45.547Z,7.50
2019-01-08T00:19:47.137Z,7.54
2019-01-08T00:24:48.661Z,7.46
2019-01-08T00:29:50.209Z,7.42
2019-01-08T00:34:51.738Z,7.40
2019-01-08T00:39:53.289Z,7.33
2019-01-08T00:44:54.822Z,7.24
2019-01-08T00:49:56.776Z,7.20
2019-01-08T00:54:58.339Z,7.25
2019-01-08T01:00:00.349Z,7.16
2019-01-08T01:05:01.910Z,7.19
2019-01-08T01:10:04.194Z,7.13
2019-01-08T01:15:06.149Z,7.06
2019-01-08T01:20:07.724Z,7.01
2019-01-08T01:25:09.324Z,7.01
2019-01-08T01:30:10.873Z,6.92
2019-01-08T01:35:12.405Z,7.00
2019-01-08T01:40:14.263Z,7.00
2019-01-08T01:45:16.647Z,6.94
2019-01-08T01:50:18.200Z,6.91
2019-01-08T01:55:19.756Z,6.96
2019-01-08T02:00:21.327Z,6.85
2019-01-08T02:05:22.991Z,6.77
2019-01-08T02:10:24.818Z,6.86
2019-01-08T02:15:27.102Z,6.84
2019-01-08T02:20:28.633Z,6.85
2019-01-08T02:25:30.215Z,6.95
2019-01-08T02:30:32.213Z,7.03
2019-01-08T02:35:33.708Z,7.11
2019-01-08T02:40:35.309Z,7.12
2019-01-08T02:45:36.949Z,7.10
2019-01-08T02:50:38.491Z,7.05
2019-01-08T02:55:39.990Z,7.06
2019-01-08T03:00:41.582Z,7.02
2019-01-08T03:05:43.186Z,6.95
2019-01-08T03:10:45.079Z,6.88
2019-01-08T03:15:46.631Z,6.84
2019-01-08T03:20:48.167Z,6.75
2019-01-08T03:25:49.719Z,6.67
2019-01-08T03:30:51.366Z,6.73
2019-01-08T03:35:53.232Z,6.71
2019-01-08T03:40:54.778Z,6.77
2019-01-08T03:45:56.389Z,6.72
2019-01-08T03:50:57.954Z,6.89
2019-01-08T03:55:59.496Z,6.98
2019-01-08T04:01:01.117Z,7.07
2019-01-08T04:06:02.604Z,7.07
2019-01-08T04:11:04.288Z,7.14
2019-01-08T04:16:05.838Z,7.18
2019-01-08T04:21:07.411Z,7.18
2019-01-08T04:26:08.996Z,7.18
2019-01-08T04:31:10.542Z,7.19
2019-01-08T04:36:12.078Z,7.18
2019-01-08T04:41:13.583Z,7.12
2019-01-08T04:46:15.469Z,7.00
2019-01-08T04:51:17.396Z,6.99
2019-01-08T04:56:18.937Z,6.91
2019-01-08T05:01:20.816Z,6.90
2019-01-08T05:06:22.387Z,6.88
2019-01-08T05:11:23.940Z,6.99
2019-01-08T05:16:25.508Z,7.09
2019-01-08T05:21:27.410Z,7.11
2019-01-08T05:26:28.965Z,7.20
2019-01-08T05:31:30.995Z,7.24
2019-01-08T05:36:32.919Z,7.32
2019-01-08T05:41:34.561Z,7.21
2019-01-08T05:46:36.119Z,6.89
2019-01-08T05:51:37.757Z,6.57
2019-01-08T05:56:39.294Z,6.29
2019-01-08T06:01:41.271Z,6.10
2019-01-08T06:06:42.818Z,5.89
2019-01-08T06:11:44.330Z,5.80
2019-01-08T06:16:45.869Z,5.79
2019-01-08T06:21:47.828Z,6.02
2019-01-08T06:26:49.653Z,5.80
2019-01-08T06:31:51.399Z,5.52
2019-01-08T06:36:52.977Z,5.37
2019-01-08T06:41:54.510Z,5.27
2019-01-08T06:46:56.076Z,5.26
2019-01-08T06:51:57.702Z,5.23
2019-01-08T06:56:59.366Z,5.15
2019-01-08T07:02:00.909Z,5.18
2019-01-08T07:07:02.482Z,5.18
2019-01-08T07:12:04.009Z,5.42
2019-01-08T07:17:06.673Z,5.53
2019-01-08T07:22:08.209Z,5.51
2019-01-08T07:27:16.337Z,5.46
2019-01-08T07:32:13.390Z,5.52
2019-01-08T07:37:16.061Z,5.66
2019-01-08T07:42:17.928Z,5.77
2019-01-08T07:47:19.845Z,5.97
2019-01-08T07:52:21.392Z,6.00
2019-01-08T07:57:24.192Z,6.06
2019-01-08T08:02:25.766Z,6.10
2019-01-08T08:07:27.702Z,6.04
2019-01-08T08:12:29.276Z,6.10
2019-01-08T08:17:30.838Z,6.08
2019-01-08T08:22:32.906Z,6.11
2019-01-08T08:27:34.627Z,6.12
2019-01-08T08:32:37.531Z,6.08
2019-01-08T08:37:39.502Z,6.17
2019-01-08T08:42:41.031Z,6.23
2019-01-08T08:47:42.585Z,6.28
2019-01-08T08:52:44.524Z,6.37
2019-01-08T08:57:46.093Z,6.41
2019-01-08T09:02:47.638Z,6.49
2019-01-08T09:07:50.294Z,6.61
2019-01-08T09:12:51.826Z,6.68
2019-01-08T09:17:53.379Z,6.71
2019-01-08T09:22:54.950Z,6.74
2019-01-08T09:27:57.743Z,6.75
2019-01-08T09:32:59.315Z,6.71
2019-01-08T09:38:01.038Z,6.72
2019-01-08T09:43:02.633Z,6.69
2019-01-08T09:48:04.606Z,6.79
2019-01-08T09:53:06.505Z,6.84
2019-01-08T09:58:08.097Z,6.89
2019-01-08T10:03:09.642Z,6.97
2019-01-08T10:08:11.983Z,7.16
2019-01-08T10:13:13.542Z,7.17
2019-01-08T10:18:15.096Z,7.22
2019-01-08T10:23:16.616Z,7.31
2019-01-08T10:28:18.173Z,7.40
2019-01-08T10:33:19.705Z,7.31
2019-01-08T10:38:21.256Z,7.32
2019-01-08T10:43:22.874Z,7.35
2019-01-08T10:48:24.418Z,7.40
2019-01-08T10:53:31.218Z,7.42
2019-01-08T10:58:33.571Z,7.43
2019-01-08T11:03:38.210Z,7.58
2019-01-08T11:08:39.972Z,7.60
2019-01-08T11:13:41.631Z,7.69
2019-01-08T11:18:43.183Z,7.80
2019-01-08T11:23:45.193Z,7.97
2019-01-08T11:28:47.705Z,7.95
2019-01-08T11:33:49.409Z,8.15
2019-01-08T11:38:50.953Z,8.26
2019-01-08T11:43:53.506Z,8.37
2019-01-08T11:48:55.447Z,8.18
2019-01-08T11:53:57.012Z,8.13
2019-01-08T11:58:58.558Z,7.95
2019-01-08T12:04:00.103Z,7.82
2019-01-08T12:09:01.642Z,7.85
2019-01-08T12:14:03.160Z,7.99
2019-01-08T12:19:04.740Z,8.20
2019-01-08T12:24:06.283Z,8.42
2019-01-08T12:29:07.886Z,8.42
2019-01-08T12:34:09.412Z,8.29
2019-01-08T12:39:10.967Z,8.15
2019-01-08T12:44:12.503Z,8.06
2019-01-08T12:49:14.007Z,8.17
2019-01-08T12:54:15.979Z,8.19
2019-01-08T12:59:17.518Z,8.17
2019-01-08T13:04:20.496Z,8.09
2019-01-08T13:09:22.000Z,8.01
2019-01-08T13:14:23.552Z,7.96
2019-01-08T13:19:25.093Z,8.05
2019-01-08T13:24:27.046Z,8.01
2019-01-08T13:29:28.554Z,8.09
2019-01-08T13:34:30.135Z,8.04
2019-01-08T13:39:32.016Z,8.04
2019-01-08T13:44:33.539Z,8.01
2019-01-08T13:49:35.096Z,7.95
2019-01-08T13:54:36.606Z,7.94
2019-01-08T13:59:38.490Z,7.93
2019-01-08T14:04:40.186Z,8.03
2019-01-08T14:09:41.733Z,8.02
2019-01-08T14:14:43.366Z,7.97
2019-01-08T14:19:44.933Z,7.91
2019-01-08T14:24:46.530Z,7.93
2019-01-08T14:29:48.086Z,7.84
2019-01-08T14:34:49.645Z,7.69
2019-01-08T14:39:51.218Z,7.54
2019-01-08T14:44:53.059Z,7.43
2019-01-08T14:49:54.745Z,7.46
2019-01-08T14:54:56.318Z,7.41
2019-01-08T14:59:57.878Z,7.34
2019-01-08T15:04:59.403Z,7.28
2019-01-08T15:10:01.104Z,7.03
2019-01-08T15:15:03.094Z,6.92
2019-01-08T15:20:04.849Z,6.97
2019-01-08T15:25:06.476Z,6.89
2019-01-08T15:30:08.840Z,6.87
2019-01-08T15:35:10.388Z,6.90
2019-01-08T15:40:11.978Z,6.96
2019-01-08T15:45:13.503Z,6.96
2019-01-08T15:50:15.057Z,6.88
2019-01-08T15:55:16.560Z,6.81
2019-01-08T16:00:18.125Z,6.67
2019-01-08T16:05:19.628Z,6.56
2019-01-08T16:10:21.338Z,6.63
2019-01-08T16:15:22.880Z,6.74
2019-01-08T16:20:24.544Z,6.65
2019-01-08T16:25:26.114Z,6.51
2019-01-08T16:30:28.476Z,6.45
2019-01-08T16:35:30.051Z,6.34
2019-01-08T16:40:31.635Z,6.20
2019-01-08T16:45:33.377Z,6.30
2019-01-08T16:50:34.943Z,6.29
2019-01-08T16:55:36.488Z,6.32
2019-01-08T17:00:38.116Z,6.56
2019-01-08T17:05:39.681Z,6.53
2019-01-08T17:10:41.518Z,6.47
2019-01-08T17:15:43.175Z,6.43
2019-01-08T17:20:44.767Z,6.45
2019-01-08T17:25:48.064Z,6.40
2019-01-08T17:30:50.186Z,6.22
2019-01-08T17:35:51.785Z,6.10
2019-01-08T17:40:53.316Z,6.03
2019-01-08T17:45:54.864Z,6.11
2019-01-08T17:50:56.663Z,6.14
2019-01-08T17:55:58.181Z,6.02
2019-01-08T18:01:03.197Z,6.10
2019-01-08T18:06:04.741Z,6.14
2019-01-08T18:11:06.754Z,6.04
2019-01-08T18:16:08.330Z,5.97
2019-01-08T18:21:09.965Z,6.03
2019-01-08T18:26:11.551Z,5.80
2019-01-08T18:31:13.066Z,5.62
2019-01-08T18:36:14.615Z,5.61
2019-01-08T18:41:16.230Z,5.68
2019-01-08T18:46:17.813Z,5.65
2019-01-08T18:51:20.979Z,5.65
2019-01-08T18:56:22.577Z,5.76
2019-01-08T19:01:24.659Z,5.77
2019-01-08T19:06:26.234Z,5.51
2019-01-08T19:11:30.286Z,5.27
2019-01-08T19:16:32.804Z,5.18
2019-01-08T19:21:36.231Z,5.23
2019-01-08T19:26:39.751Z,5.21
2019-01-08T19:31:41.833Z,5.11
2019-01-08T19:36:43.470Z,5.09
2019-01-08T19:41:45.220Z,5.19
2019-01-08T19:46:46.889Z,5.30
2019-01-08T19:51:48.548Z,5.15
2019-01-08T19:56:53.088Z,5.12
2019-01-08T20:01:55.083Z,5.15
2019-01-08T20:06:57.220Z,5.23
2019-01-08T20:11:59.063Z,5.16
2019-01-08T20:17:00.739Z,5.16
2019-01-08T20:22:02.335Z,5.22
2019-01-08T20:27:04.404Z,5.22
2019-01-08T20:32:06.037Z,5.33
2019-01-08T20:37:07.593Z,5.30
2019-01-08T20:42:09.635Z,5.42
2019-01-08T20:47:11.361Z,5.49
2019-01-08T20:52:13.391Z,5.52
2019-01-08T20:57:14.956Z,5.63
2019-01-08T21:02:16.520Z,5.73
2019-01-08T21:07:18.495Z,5.85
2019-01-08T21:12:20.249Z,5.87
2019-01-08T21:17:22.062Z,5.91
2019-01-08T21:22:24.291Z,5.83
2019-01-08T21:27:26.129Z,5.69
2019-01-08T21:32:29.141Z,5.77
2019-01-08T21:37:30.713Z,5.59
2019-01-08T21:42:32.725Z,5.30
2019-01-08T21:47:34.320Z,5.28
2019-01-08T21:52:36.063Z,5.26
2019-01-08T21:57:37.672Z,5.21
2019-01-08T22:02:39.215Z,5.03
2019-01-08T22:07:41.256Z,4.99
2019-01-08T22:12:43.099Z,5.16
2019-01-08T22:17:45.203Z,5.15
2019-01-08T22:22:52.459Z,5.14
2019-01-08T22:27:50.180Z,5.03
2019-01-08T22:32:51.755Z,4.92
2019-01-08T22:37:53.293Z,4.81
2019-01-08T22:42:54.799Z,4.83
2019-01-08T22:47:56.454Z,4.76
2019-01-08T22:52:58.246Z,4.68
2019-01-08T22:58:01.968Z,4.66
2019-01-08T23:03:03.341Z,4.61
2019-01-08T23:08:04.855Z,4.65
2019-01-08T23:13:06.970Z,4.79
2019-01-08T23:18:08.485Z,4.83
2019-01-08T23:23:10.110Z,4.68
2019-01-08T23:28:11.655Z,4.54
2019-01-08T23:33:13.194Z,4.39
2019-01-08T23:38:14.737Z,4.37
2019-01-08T23:43:16.817Z,4.28
2019-01-08T23:48:18.442Z,4.28
2019-01-08T23:53:28.365Z,4.24
2019-01-08T23:58:29.899Z,4.27
